Angora, Nebraska
Current Conditions -  °F | °C
As of 11:53 AM on Sunday 21 Dec 2014 (Local Time) from KAIA Reporting Station
Overcast Overcast  
Wind Chill: 32°   Ceiling: 10000
Heat Index: 40°   Visibility: 10mi
Dew Point: 27°   Wind: 15mph
Humidity: 60%   Direction: 210°SSW
Pressure: 29.5"   Gusts: NA
Location:  41.85°N, 103.13°W
Report Text: KAIA 211853Z AUTO 21013KT 10SM OVC100 04/M03 A2950 RMK AO2 SLP997 T00441028
Loading
Personal Weather Stations






























Interactive Weather Map New forecast layout! Learn more

10-Day Weather Forecast

Advertisements
Track Severe Weather on mobile